OOCL Kaohsiung — 9V9830 — position and weather

sailwx.info

Track history (hours):
 
Tides and Currents Weather Stations Pressure Air Temp Water Temp Dewpoint Dewpoint Depression Visibility Wind Speed Wind Dir Waves Ship Positions

OOCL Kaohsiung

Last reported at 2014-Dec-13 01:26 UTC. Time now 2014-Dec-18 19:34 UTC.
Position N 01°54' E 102°22'.

Length 280 m; draft 13.3 m.

Type: Cargo ship. MMSI: 566389000.

Date/timePositionNaut miles runAvg speedWind from/ knotsBaromVisibWave heightAir tempDewpointWater temp
2014-Dec-13 01:26N 01°54' E 102°22'1720.0
2014-Dec-13 00:33N 01°47' E 102°38'2220.3
2014-Dec-12 23:28N 01°35' E 102°57'5719.2
2014-Dec-12 20:30N 01°10' E 103°48'6 6.3
2014-Dec-12 19:33N 01°16' E 103°50'0 0.1
2014-Dec-12 18:32N 01°16' E 103°50'0 0.0
2014-Dec-12 17:33N 01°16' E 103°50'0 0.0
2014-Dec-12 16:33N 01°16' E 103°50'0 0.0
2014-Dec-12 15:32N 01°16' E 103°50'0 0.0
2014-Dec-12 14:33N 01°16' E 103°50'0 0.0
2014-Dec-12 13:32N 01°16' E 103°50'0 0.0
2014-Dec-12 12:31N 01°16' E 103°50'0 0.0
2014-Dec-12 11:24N 01°16' E 103°50'0 0.0
2014-Dec-12 10:32N 01°16' E 103°50'0 0.0
2014-Dec-12 09:32N 01°16' E 103°50'1 0.5
2014-Dec-12 08:33N 01°15' E 103°51'1 0.6
2014-Dec-12 07:32N 01°16' E 103°51'0 0.0
2014-Dec-12 06:20N 01°16' E 103°51'0 0.0
2014-Dec-12 05:29N 01°16' E 103°51'0 0.0
2014-Dec-12 04:32N 01°16' E 103°51'0 0.0
2014-Dec-12 03:32N 01°16' E 103°51'0 0.0
2014-Dec-12 02:32N 01°16' E 103°51'0 0.0
2014-Dec-12 01:32N 01°16' E 103°51'0 0.0
2014-Dec-12 00:29N 01°16' E 103°51'0 0.0
2014-Dec-11 23:26N 01°16' E 103°51'0 0.0
2014-Dec-11 22:32N 01°16' E 103°51'0 0.0
2014-Dec-11 21:26N 01°16' E 103°51'0 0.0
2014-Dec-11 20:32N 01°16' E 103°51'0 0.0
2014-Dec-11 19:20N 01°16' E 103°51'0 0.0
2014-Dec-11 18:17N 01°16' E 103°51'0 0.0
2014-Dec-11 17:14N 01°16' E 103°51'1 2.2
2014-Dec-11 16:33N 01°15' E 103°52'4 4.5
2014-Dec-11 15:33N 01°14' E 103°56'10 9.6
2014-Dec-11 14:33N 01°16' E 104°06'  
2014-Dec-06 13:32N 01°16' E 104°14'1919.0
2014-Dec-06 12:33N 01°13' E 103°55'5 4.7
2014-Dec-06 11:28N 01°16' E 103°51'0 0.0
2014-Dec-06 10:28N 01°16' E 103°51'0 0.0
2014-Dec-06 09:28N 01°16' E 103°51'0 0.0
2014-Dec-06 08:31N 01°16' E 103°51'0 0.0
2014-Dec-06 07:22N 01°16' E 103°51'0 0.0
2014-Dec-06 06:28N 01°16' E 103°51'0 0.0
2014-Dec-06 05:22N 01°16' E 103°51'0 0.0
2014-Dec-06 04:28N 01°16' E 103°51'0 0.0
2014-Dec-06 03:31N 01°16' E 103°51'0 0.0
2014-Dec-06 02:31N 01°16' E 103°51'0 0.0
2014-Dec-06 01:31N 01°16' E 103°51'0 0.0
2014-Dec-06 00:28N 01°16' E 103°51'0 0.0
2014-Dec-05 23:31N 01°16' E 103°51'0 0.0
2014-Dec-05 22:28N 01°16' E 103°51'0 0.0
2014-Dec-05 21:28N 01°16' E 103°51'0 0.0
2014-Dec-05 20:28N 01°16' E 103°51'0 0.0
2014-Dec-05 19:31N 01°16' E 103°51'0 0.0
2014-Dec-05 18:28N 01°16' E 103°51'0 0.0
2014-Dec-05 17:28N 01°16' E 103°51'0 0.0
2014-Dec-05 16:31N 01°16' E 103°51'0 0.0
2014-Dec-05 15:25N 01°16' E 103°51'0 0.0
2014-Dec-05 14:31N 01°16' E 103°51'0 0.0
2014-Dec-05 13:28N 01°16' E 103°51'0 0.0
2014-Dec-05 12:31N 01°16' E 103°51'0 0.0
2014-Dec-05 11:28N 01°16' E 103°51'0 0.0
2014-Dec-05 10:28N 01°16' E 103°51'0 0.0
2014-Dec-05 09:33N 01°16' E 103°51'0 0.0
2014-Dec-05 08:33N 01°16' E 103°51'1 0.7
2014-Dec-05 07:33N 01°15' E 103°51'3 3.0
2014-Dec-05 06:33N 01°14' E 103°54'7 6.8
2014-Dec-05 05:33N 01°10' E 103°48'1211.8
2014-Dec-05 04:32N 01°03' E 103°39'  
Track history (hours):
 
Tides and Currents Weather Stations Pressure Air Temp Water Temp Dewpoint Dewpoint Depression Visibility Wind Speed Wind Dir Waves Ship Positions

OOCL Kaohsiung

Last reported at 2014-Dec-13 01:26 UTC. Time now 2014-Dec-18 19:34 UTC.
Position N 01°54' E 102°22'.

Length 280 m; draft 13.3 m.

Type: Cargo ship. MMSI: 566389000.

Date/timePositionNaut miles runAvg speedWind from/ knotsBaromVisibWave heightAir tempDewpointWater temp
2014-Dec-13 01:26N 01°54' E 102°22'1720.0
2014-Dec-13 00:33N 01°47' E 102°38'2220.3
2014-Dec-12 23:28N 01°35' E 102°57'5719.2
2014-Dec-12 20:30N 01°10' E 103°48'6 6.3
2014-Dec-12 19:33N 01°16' E 103°50'0 0.1
2014-Dec-12 18:32N 01°16' E 103°50'0 0.0
2014-Dec-12 17:33N 01°16' E 103°50'0 0.0
2014-Dec-12 16:33N 01°16' E 103°50'0 0.0
2014-Dec-12 15:32N 01°16' E 103°50'0 0.0
2014-Dec-12 14:33N 01°16' E 103°50'0 0.0
2014-Dec-12 13:32N 01°16' E 103°50'0 0.0
2014-Dec-12 12:31N 01°16' E 103°50'0 0.0
2014-Dec-12 11:24N 01°16' E 103°50'0 0.0
2014-Dec-12 10:32N 01°16' E 103°50'0 0.0
2014-Dec-12 09:32N 01°16' E 103°50'1 0.5
2014-Dec-12 08:33N 01°15' E 103°51'1 0.6
2014-Dec-12 07:32N 01°16' E 103°51'0 0.0
2014-Dec-12 06:20N 01°16' E 103°51'0 0.0
2014-Dec-12 05:29N 01°16' E 103°51'0 0.0
2014-Dec-12 04:32N 01°16' E 103°51'0 0.0
2014-Dec-12 03:32N 01°16' E 103°51'0 0.0
2014-Dec-12 02:32N 01°16' E 103°51'0 0.0
2014-Dec-12 01:32N 01°16' E 103°51'0 0.0
2014-Dec-12 00:29N 01°16' E 103°51'0 0.0
2014-Dec-11 23:26N 01°16' E 103°51'0 0.0
2014-Dec-11 22:32N 01°16' E 103°51'0 0.0
2014-Dec-11 21:26N 01°16' E 103°51'0 0.0
2014-Dec-11 20:32N 01°16' E 103°51'0 0.0
2014-Dec-11 19:20N 01°16' E 103°51'0 0.0
2014-Dec-11 18:17N 01°16' E 103°51'0 0.0
2014-Dec-11 17:14N 01°16' E 103°51'1 2.2
2014-Dec-11 16:33N 01°15' E 103°52'4 4.5
2014-Dec-11 15:33N 01°14' E 103°56'10 9.6
2014-Dec-11 14:33N 01°16' E 104°06'  
2014-Dec-06 13:32N 01°16' E 104°14'1919.0
2014-Dec-06 12:33N 01°13' E 103°55'5 4.7
2014-Dec-06 11:28N 01°16' E 103°51'0 0.0
2014-Dec-06 10:28N 01°16' E 103°51'0 0.0
2014-Dec-06 09:28N 01°16' E 103°51'0 0.0
2014-Dec-06 08:31N 01°16' E 103°51'0 0.0
2014-Dec-06 07:22N 01°16' E 103°51'0 0.0
2014-Dec-06 06:28N 01°16' E 103°51'0 0.0
2014-Dec-06 05:22N 01°16' E 103°51'0 0.0
2014-Dec-06 04:28N 01°16' E 103°51'0 0.0
2014-Dec-06 03:31N 01°16' E 103°51'0 0.0
2014-Dec-06 02:31N 01°16' E 103°51'0 0.0
2014-Dec-06 01:31N 01°16' E 103°51'0 0.0
2014-Dec-06 00:28N 01°16' E 103°51'0 0.0
2014-Dec-05 23:31N 01°16' E 103°51'0 0.0
2014-Dec-05 22:28N 01°16' E 103°51'0 0.0
2014-Dec-05 21:28N 01°16' E 103°51'0 0.0
2014-Dec-05 20:28N 01°16' E 103°51'0 0.0
2014-Dec-05 19:31N 01°16' E 103°51'0 0.0
2014-Dec-05 18:28N 01°16' E 103°51'0 0.0
2014-Dec-05 17:28N 01°16' E 103°51'0 0.0
2014-Dec-05 16:31N 01°16' E 103°51'0 0.0
2014-Dec-05 15:25N 01°16' E 103°51'0 0.0
2014-Dec-05 14:31N 01°16' E 103°51'0 0.0
2014-Dec-05 13:28N 01°16' E 103°51'0 0.0
2014-Dec-05 12:31N 01°16' E 103°51'0 0.0
2014-Dec-05 11:28N 01°16' E 103°51'0 0.0
2014-Dec-05 10:28N 01°16' E 103°51'0 0.0
2014-Dec-05 09:33N 01°16' E 103°51'0 0.0
2014-Dec-05 08:33N 01°16' E 103°51'1 0.7
2014-Dec-05 07:33N 01°15' E 103°51'3 3.0
2014-Dec-05 06:33N 01°14' E 103°54'7 6.8
2014-Dec-05 05:33N 01°10' E 103°48'1211.8
2014-Dec-05 04:32N 01°03' E 103°39'  

Dump ship's entire track history